createdAt,value
2023-01-18T00:22:41.442Z,3.77
2023-01-18T05:29:59.812Z,6.17
2023-01-18T05:32:29.133Z,6.10
2023-01-18T05:35:02.209Z,5.30
2023-01-18T10:08:08.499Z,6.10
2023-01-18T10:11:06.652Z,22.83
2023-01-18T10:13:54.297Z,10.10
2023-01-18T10:16:25.456Z,3.60
2023-01-18T10:18:58.927Z,5.00
2023-01-18T10:21:48.014Z,4.33
2023-01-18T10:24:33.716Z,4.03
2023-01-18T10:27:50.811Z,2.73
2023-01-18T10:30:59.999Z,3.33
2023-01-18T10:33:35.541Z,2.50
2023-01-18T10:36:14.060Z,3.43
2023-01-18T10:38:48.105Z,3.33
2023-01-18T10:41:28.311Z,3.80
2023-01-18T10:43:57.979Z,4.00
2023-01-18T10:46:26.712Z,4.90
2023-01-18T10:48:57.672Z,4.43
2023-01-18T10:51:33.240Z,3.17
2023-01-18T10:54:24.929Z,3.50
2023-01-18T10:57:04.654Z,3.77
2023-01-18T10:59:41.453Z,3.67
2023-01-18T11:02:28.038Z,3.00
2023-01-18T11:05:04.773Z,3.50
2023-01-18T11:07:34.084Z,3.17
2023-01-18T11:10:10.498Z,2.60
2023-01-18T11:12:48.214Z,2.50
2023-01-18T11:15:32.618Z,2.40
2023-01-18T11:18:17.807Z,2.50
2023-01-18T11:20:51.730Z,2.87
2023-01-18T11:23:27.498Z,2.60
2023-01-18T11:26:05.903Z,3.50
2023-01-18T11:28:46.385Z,2.87
2023-01-18T11:31:21.142Z,2.73
2023-01-18T11:33:58.217Z,2.70
2023-01-18T11:37:00.711Z,3.80
2023-01-18T11:39:36.275Z,3.00
2023-01-18T11:42:36.412Z,2.50
2023-01-18T11:45:29.583Z,2.53
2023-01-18T11:48:11.079Z,2.47
2023-01-18T11:50:45.447Z,2.80
2023-01-18T11:53:38.290Z,3.03
2023-01-18T11:56:20.063Z,2.87
2023-01-18T11:58:54.034Z,2.97
2023-01-18T12:01:53.702Z,2.43
2023-01-18T12:04:42.985Z,2.60
2023-01-18T12:07:28.884Z,2.97
2023-01-18T12:10:04.493Z,3.10
2023-01-18T12:13:02.687Z,2.70
2023-01-18T12:16:01.079Z,2.90
2023-01-18T12:19:07.652Z,3.20
2023-01-18T12:21:57.910Z,10.17
2023-01-18T12:24:53.647Z,5.80
2023-01-18T12:27:39.541Z,3.60
2023-01-18T12:30:35.006Z,5.53
2023-01-18T12:33:34.335Z,5.27
2023-01-18T12:36:46.802Z,6.47
2023-01-18T12:39:43.834Z,5.90
2023-01-18T12:42:20.462Z,5.03
2023-01-18T12:45:13.070Z,9.63
2023-01-18T12:47:50.571Z,12.80
2023-01-18T12:50:28.211Z,5.10
2023-01-18T12:53:06.265Z,4.87
2023-01-18T12:55:53.636Z,4.77
2023-01-18T12:58:28.997Z,4.60
2023-01-18T13:01:05.995Z,9.77
2023-01-18T13:03:46.042Z,7.40
2023-01-18T13:06:33.250Z,7.70
2023-01-18T13:09:13.853Z,32.47
2023-01-18T13:11:55.363Z,17.20
2023-01-18T13:14:35.178Z,12.27
2023-01-18T13:17:18.681Z,10.30
2023-01-18T13:19:56.045Z,14.20
2023-01-18T13:22:39.541Z,21.33
2023-01-18T13:25:52.599Z,18.90
2023-01-18T13:28:25.156Z,24.03
2023-01-18T13:31:01.883Z,14.43
2023-01-18T13:33:39.046Z,28.77
2023-01-18T13:36:14.530Z,15.97
2023-01-18T13:38:56.452Z,8.63
2023-01-18T13:41:31.534Z,16.13
2023-01-18T13:44:08.726Z,17.70
2023-01-18T13:46:39.648Z,8.50
2023-01-18T13:49:38.566Z,7.97
2023-01-18T13:52:36.415Z,8.30
2023-01-18T13:55:32.320Z,7.90
2023-01-18T13:58:05.394Z,4.27
2023-01-18T14:00:37.980Z,7.70
2023-01-18T14:03:24.764Z,8.93
2023-01-18T14:05:57.836Z,4.90
2023-01-18T14:08:34.929Z,5.27
2023-01-18T14:11:12.663Z,4.23
2023-01-18T14:14:28.986Z,3.90
2023-01-18T14:17:03.928Z,3.50
2023-01-18T14:20:20.509Z,3.67
2023-01-18T14:23:24.333Z,3.70
2023-01-18T14:29:07.582Z,4.13
2023-01-18T14:31:47.690Z,12.13
2023-01-18T14:35:00.363Z,8.50
2023-01-18T14:41:08.858Z,3.93
2023-01-18T14:44:19.725Z,52.73
2023-01-18T14:47:56.307Z,134.30
2023-01-18T14:50:29.646Z,90.97
2023-01-18T14:53:00.728Z,33.07
2023-01-18T14:55:44.731Z,82.87
2023-01-18T19:44:06.776Z,12.07
2023-01-18T19:46:40.184Z,10.23
2023-01-18T20:00:27.054Z,7.97
2023-01-18T20:03:22.000Z,7.70
2023-01-18T20:06:17.401Z,7.47
2023-01-18T20:09:22.205Z,6.37
2023-01-18T22:05:11.379Z,4.20
2023-01-18T22:11:03.331Z,4.57
